createdAt,value
2019-01-15T00:02:11.613Z,98097.06
2019-01-15T00:04:39.957Z,98099.98
2019-01-15T00:07:08.550Z,98100.33
2019-01-15T00:09:36.854Z,98093.55
2019-01-15T00:12:07.916Z,98100.94
2019-01-15T00:14:35.305Z,98096.68
2019-01-15T00:17:03.640Z,98110.92
2019-01-15T00:19:31.946Z,98111.45
2019-01-15T00:22:00.246Z,98112.23
2019-01-15T00:24:28.582Z,98121.94
2019-01-15T00:26:56.890Z,98116.70
2019-01-15T00:29:25.215Z,98122.48
2019-01-15T00:31:53.527Z,98128.55
2019-01-15T00:34:21.869Z,98132.50
2019-01-15T00:36:50.482Z,98136.70
2019-01-15T00:39:18.786Z,98140.10
2019-01-15T00:41:47.119Z,98144.23
2019-01-15T00:44:15.719Z,98149.84
2019-01-15T00:46:44.045Z,98151.81
2019-01-15T00:49:12.350Z,98160.20
2019-01-15T00:51:40.674Z,98174.62
2019-01-15T00:54:09.038Z,98177.73
2019-01-15T00:56:37.434Z,98176.13
2019-01-15T00:59:05.807Z,98178.80
2019-01-15T01:01:34.192Z,98183.50
2019-01-15T01:04:02.583Z,98187.83
2019-01-15T01:06:32.918Z,98184.98
2019-01-15T01:09:01.027Z,98194.00
2019-01-15T01:11:29.763Z,98194.66
2019-01-15T01:13:58.258Z,98199.02
2019-01-15T01:16:26.563Z,98200.02
2019-01-15T01:18:54.896Z,98186.83
2019-01-15T01:21:23.596Z,98202.52
2019-01-15T01:23:51.925Z,98199.77
2019-01-15T01:26:20.269Z,98195.95
2019-01-15T01:28:48.597Z,98191.16
2019-01-15T01:31:16.979Z,98187.37
2019-01-15T01:33:45.355Z,98198.34
2019-01-15T01:36:13.752Z,98197.30
2019-01-15T01:38:42.179Z,98206.19
2019-01-15T01:41:10.566Z,98188.84
2019-01-15T01:43:38.938Z,98190.24
2019-01-15T01:46:07.262Z,98189.28
2019-01-15T01:48:35.568Z,98196.62
2019-01-15T01:51:03.970Z,98203.53
2019-01-15T01:53:32.660Z,98191.03
2019-01-15T01:56:01.000Z,98209.73
2019-01-15T01:58:29.308Z,98197.33
2019-01-15T02:00:57.602Z,98193.41
2019-01-15T02:03:25.933Z,98212.09
2019-01-15T02:05:54.243Z,98210.11
2019-01-15T02:08:22.643Z,98227.38
2019-01-15T02:10:50.948Z,98212.63
2019-01-15T02:13:19.609Z,98226.57
2019-01-15T02:15:48.304Z,98208.13
2019-01-15T02:18:16.695Z,98210.66
2019-01-15T02:20:45.001Z,98228.31
2019-01-15T02:23:13.326Z,98213.14
2019-01-15T02:25:41.635Z,98217.36
2019-01-15T02:28:10.242Z,98225.17
2019-01-15T02:30:38.608Z,98218.49
2019-01-15T02:33:06.978Z,98212.29
2019-01-15T02:35:35.468Z,98213.17
2019-01-15T02:38:04.147Z,98215.02
2019-01-15T02:40:32.481Z,98226.60
2019-01-15T02:43:01.216Z,98220.30
2019-01-15T02:45:29.605Z,98234.84
2019-01-15T02:47:58.196Z,98218.49
2019-01-15T02:50:26.519Z,98215.59
2019-01-15T02:52:54.829Z,98232.02
2019-01-15T02:55:23.131Z,98216.00
2019-01-15T02:57:52.797Z,98230.77
2019-01-15T03:00:24.911Z,98217.36
2019-01-15T03:02:53.579Z,98229.70
2019-01-15T03:05:22.188Z,98225.03
2019-01-15T03:07:50.651Z,98242.21
2019-01-15T03:10:20.597Z,98243.20
2019-01-15T03:12:55.740Z,98232.42
2019-01-15T03:15:21.551Z,98222.41
2019-01-15T03:17:49.850Z,98256.70
2019-01-15T03:20:18.623Z,98226.05
2019-01-15T03:22:47.000Z,98224.66
2019-01-15T03:25:15.998Z,98246.78
2019-01-15T03:27:44.574Z,98238.15
2019-01-15T03:30:19.095Z,98244.59
2019-01-15T03:32:47.488Z,98231.03
2019-01-15T03:35:15.809Z,98234.56
2019-01-15T03:37:44.555Z,98220.02
2019-01-15T03:40:18.103Z,98225.50
2019-01-15T03:42:46.494Z,98235.55
2019-01-15T03:45:15.049Z,98225.70
2019-01-15T03:47:43.509Z,98251.51
2019-01-15T03:50:12.151Z,98222.77
2019-01-15T03:52:40.484Z,98238.40
2019-01-15T03:55:11.131Z,98236.36
2019-01-15T03:57:39.601Z,98238.47
2019-01-15T04:00:11.073Z,98244.56
2019-01-15T04:02:39.643Z,98240.42
2019-01-15T04:05:08.972Z,98256.59
2019-01-15T04:07:37.650Z,98250.53
2019-01-15T04:10:09.471Z,98267.41
2019-01-15T04:12:37.889Z,98260.63
2019-01-15T04:15:12.091Z,98256.97
2019-01-15T04:17:40.400Z,98249.65
2019-01-15T04:20:14.907Z,98252.58
2019-01-15T04:22:43.751Z,98247.76
2019-01-15T04:25:13.526Z,98269.60
2019-01-15T04:27:41.832Z,98265.64
2019-01-15T04:30:18.922Z,98264.98
2019-01-15T04:32:47.245Z,98266.66
2019-01-15T04:35:15.631Z,98258.97
2019-01-15T04:37:44.719Z,98263.36
2019-01-15T04:40:16.489Z,98273.11
2019-01-15T04:42:44.819Z,98278.56
2019-01-15T04:45:15.868Z,98258.16
2019-01-15T04:47:44.250Z,98260.69
2019-01-15T04:50:13.307Z,98257.98
2019-01-15T04:52:43.319Z,98260.89
2019-01-15T04:55:12.525Z,98256.80
2019-01-15T04:57:41.037Z,98282.64
2019-01-15T05:00:14.871Z,98281.66
2019-01-15T05:02:43.519Z,98279.84
2019-01-15T05:05:11.986Z,98269.41
2019-01-15T05:07:40.303Z,98279.95
2019-01-15T05:10:11.928Z,98295.45
2019-01-15T05:12:40.311Z,98290.82
2019-01-15T05:15:13.038Z,98288.91
2019-01-15T05:17:41.635Z,98303.95
2019-01-15T05:20:18.185Z,98296.64
2019-01-15T05:22:47.057Z,98303.88
2019-01-15T05:25:18.006Z,98322.34
2019-01-15T05:27:46.402Z,98329.52
2019-01-15T05:30:23.393Z,98314.58
2019-01-15T05:32:51.903Z,98323.57
2019-01-15T05:35:20.218Z,98336.58
2019-01-15T05:37:48.756Z,98349.55
2019-01-15T05:40:18.147Z,98328.56
2019-01-15T05:42:46.451Z,98333.72
2019-01-15T05:45:21.782Z,98330.04
2019-01-15T05:47:51.593Z,98348.49
2019-01-15T05:50:37.817Z,98338.48
2019-01-15T05:53:06.287Z,98345.11
2019-01-15T05:55:34.625Z,98345.92
2019-01-15T05:58:02.918Z,98341.44
